Time,TemperatureF,DewpointF,PressureIn,WindDirection,WindDirectionDegrees,WindSpeedMPH,WindSpeedGustMPH,Humidity,HourlyPrecipIn,Conditions,Clouds,dailyrainin,SoftwareType,DateUTC
2013-01-18 00:03:00,29.0,29.0,30.16,NNW,346,25.0,29.0,99,0.00,,,1.94,,2013-01-18 05:03:00,
2013-01-18 00:12:00,29.0,29.0,30.16,NNW,346,25.0,29.0,99,0.00,,,1.94,,2013-01-18 05:12:00,
2013-01-18 00:22:00,28.0,28.0,30.16,NNW,342,26.0,31.0,99,0.00,,,1.93,,2013-01-18 05:22:00,
2013-01-18 00:33:00,28.0,28.0,30.17,NNW,338,23.0,29.0,99,0.00,,,1.93,,2013-01-18 05:33:00,
2013-01-18 00:42:00,28.0,28.0,30.17,NNW,338,23.0,29.0,99,0.00,,,1.93,,2013-01-18 05:42:00,
2013-01-18 00:53:00,28.0,28.0,30.19,NNW,342,18.0,27.0,99,0.00,,,1.93,,2013-01-18 05:53:00,
2013-01-18 01:02:00,28.0,28.0,30.19,NNW,348,20.0,27.0,99,0.00,,,1.93,,2013-01-18 06:02:00,
2013-01-18 01:12:00,28.0,28.0,30.19,NNW,348,20.0,27.0,99,0.00,,,1.93,,2013-01-18 06:12:00,
2013-01-18 01:22:00,27.0,27.0,30.20,NNW,342,26.0,33.0,99,0.00,,,1.93,,2013-01-18 06:22:00,
2013-01-18 01:33:00,27.0,27.0,30.21,NNW,330,27.0,33.0,98,0.00,,,1.93,,2013-01-18 06:33:00,
2013-01-18 01:43:00,27.0,27.0,30.21,NNW,330,27.0,33.0,98,0.00,,,1.93,,2013-01-18 06:43:00,
2013-01-18 01:53:00,26.0,26.0,30.21,NNW,342,28.0,34.0,98,0.00,,,1.93,,2013-01-18 06:53:00,
2013-01-18 02:02:00,26.0,26.0,30.22,NNW,333,24.0,32.0,98,0.00,,,1.93,,2013-01-18 07:02:00,
2013-01-18 02:12:00,26.0,26.0,30.22,NNW,333,24.0,32.0,98,0.00,,,1.93,,2013-01-18 07:12:00,
2013-01-18 02:22:00,26.0,26.0,30.22,NNW,338,26.0,37.0,98,0.00,,,1.93,,2013-01-18 07:22:00,
2013-01-18 02:32:00,26.0,25.0,30.22,NNW,331,25.0,36.0,97,0.00,,,1.93,,2013-01-18 07:32:00,
2013-01-18 02:42:00,26.0,25.0,30.22,NNW,331,25.0,36.0,97,0.00,,,1.93,,2013-01-18 07:42:00,
2013-01-18 02:52:00,26.0,24.0,30.22,NNW,335,36.0,42.0,91,0.00,,,1.93,,2013-01-18 07:52:00,
2013-01-18 03:02:00,26.0,24.0,30.22,NNW,333,35.0,43.0,92,0.00,,,1.93,,2013-01-18 08:02:00,
2013-01-18 03:12:00,26.0,24.0,30.22,NNW,333,35.0,43.0,92,0.00,,,1.93,,2013-01-18 08:12:00,
2013-01-18 03:22:00,27.0,23.0,30.22,NNW,343,37.0,44.0,86,0.00,,,1.92,,2013-01-18 08:22:00,
2013-01-18 03:32:00,27.0,23.0,30.22,NNW,346,38.0,42.0,86,0.00,,,1.92,,2013-01-18 08:32:00,
2013-01-18 03:42:00,27.0,23.0,30.22,NNW,346,38.0,42.0,86,0.00,,,1.92,,2013-01-18 08:42:00,
2013-01-18 03:53:00,27.0,22.0,30.23,NNW,332,39.0,45.0,80,0.00,,,1.92,,2013-01-18 08:53:00,
2013-01-18 04:03:00,27.0,22.0,30.24,North,353,37.0,45.0,81,0.00,,,1.92,,2013-01-18 09:03:00,
2013-01-18 04:12:00,27.0,22.0,30.24,North,353,37.0,45.0,81,0.00,,,1.92,,2013-01-18 09:12:00,
2013-01-18 09:03:00,32.0,13.0,30.35,North,357,31.0,34.0,44,0.00,,,1.66,,2013-01-18 14:03:00,
2013-01-18 09:12:00,32.0,13.0,30.35,North,357,31.0,34.0,44,0.00,,,1.66,,2013-01-18 14:12:00,
2013-01-18 09:23:00,32.0,11.0,30.38,NNW,346,29.0,34.0,41,0.00,,,1.44,,2013-01-18 14:23:00,
2013-01-18 09:34:00,31.0,12.0,30.39,North,356,24.0,32.0,44,0.00,,,1.44,,2013-01-18 14:34:00,
2013-01-18 09:43:00,31.0,12.0,30.39,North,356,24.0,32.0,44,0.00,,,1.44,,2013-01-18 14:43:00,
2013-01-18 09:53:00,32.0,13.0,30.42,NNW,339,16.0,28.0,45,0.00,,,1.44,,2013-01-18 14:53:00,
2013-01-18 10:03:00,32.0,13.0,30.42,NW,323,16.0,21.0,45,0.00,,,1.44,,2013-01-18 15:03:00,
2013-01-18 10:13:00,32.0,13.0,30.42,NW,323,16.0,21.0,45,0.00,,,1.44,,2013-01-18 15:13:00,
2013-01-18 10:23:00,32.0,14.0,30.44,NW,316,8.0,17.0,47,0.00,,,1.24,,2013-01-18 15:23:00,
2013-01-18 10:34:00,32.0,14.0,30.45,NW,307,10.0,15.0,46,0.00,,,1.24,,2013-01-18 15:34:00,
2013-01-18 10:43:00,32.0,14.0,30.45,NW,307,10.0,15.0,46,0.00,,,1.24,,2013-01-18 15:43:00,
2013-01-18 10:54:00,33.0,12.0,30.45,NW,316,7.0,15.0,42,0.00,,,1.24,,2013-01-18 15:54:00,
2013-01-18 11:03:00,33.0,11.0,30.46,WNW,295,6.0,13.0,39,0.00,,,1.24,,2013-01-18 16:03:00,
2013-01-18 11:13:00,33.0,11.0,30.46,WNW,295,6.0,13.0,39,0.00,,,1.24,,2013-01-18 16:13:00,
2013-01-18 11:23:00,33.0,12.0,30.46,NW,304,7.0,11.0,41,0.00,,,1.06,,2013-01-18 16:23:00,
2013-01-18 11:33:00,33.0,12.0,30.46,West,280,4.0,11.0,42,0.00,,,1.06,,2013-01-18 16:33:00,
2013-01-18 11:43:00,33.0,12.0,30.46,West,280,4.0,11.0,42,0.00,,,1.06,,2013-01-18 16:43:00,
2013-01-18 11:53:00,34.0,13.0,30.46,North,357,2.0,5.0,42,0.00,,,1.06,,2013-01-18 16:53:00,
2013-01-18 12:03:00,33.0,19.0,30.46,WSW,257,5.0,7.0,55,0.00,,,1.06,,2013-01-18 17:03:00,
2013-01-18 12:13:00,33.0,19.0,30.46,WSW,257,5.0,7.0,55,0.00,,,1.06,,2013-01-18 17:13:00,
2013-01-18 12:23:00,33.0,19.0,30.46,West,266,5.0,9.0,57,0.00,,,0.89,,2013-01-18 17:23:00,
2013-01-18 12:33:00,33.0,17.0,30.46,West,264,5.0,8.0,52,0.00,,,0.89,,2013-01-18 17:33:00,
2013-01-18 12:43:00,33.0,17.0,30.46,West,264,5.0,8.0,52,0.00,,,0.89,,2013-01-18 17:43:00,
2013-01-18 12:53:00,34.0,20.0,30.45,SSW,202,5.0,8.0,55,0.00,,,0.89,,2013-01-18 17:53:00,
2013-01-18 13:03:00,35.0,21.0,30.45,SW,229,3.0,9.0,56,0.00,,,0.89,,2013-01-18 18:03:00,
2013-01-18 13:13:00,35.0,21.0,30.45,SW,229,3.0,9.0,56,0.00,,,0.89,,2013-01-18 18:13:00,
2013-01-18 13:23:00,36.0,20.0,30.45,SSE,156,7.0,12.0,51,0.00,,,0.78,,2013-01-18 18:23:00,
2013-01-18 13:33:00,37.0,23.0,30.45,SE,134,5.0,11.0,56,0.00,,,0.78,,2013-01-18 18:33:00,
2013-01-18 13:43:00,37.0,23.0,30.45,SE,134,5.0,11.0,56,0.00,,,0.78,,2013-01-18 18:43:00,
2013-01-18 13:53:00,36.0,22.0,30.45,WSW,253,2.0,6.0,56,0.00,,,0.78,,2013-01-18 18:53:00,
2013-01-18 14:03:00,38.0,24.0,30.45,WSW,255,3.0,5.0,57,0.00,,,0.78,,2013-01-18 19:03:00,
2013-01-18 14:13:00,38.0,24.0,30.45,WSW,255,3.0,5.0,57,0.00,,,0.78,,2013-01-18 19:13:00,
2013-01-18 14:23:00,39.0,23.0,30.45,South,179,6.0,12.0,53,0.00,,,0.57,,2013-01-18 19:23:00,
2013-01-18 14:33:00,39.0,22.0,30.45,SW,219,4.0,8.0,51,0.00,,,0.57,,2013-01-18 19:33:00,
2013-01-18 14:43:00,39.0,22.0,30.45,SW,219,4.0,8.0,51,0.00,,,0.57,,2013-01-18 19:43:00,
2013-01-18 14:53:00,40.0,23.0,30.45,East,96,4.0,6.0,50,0.01,,,0.58,,2013-01-18 19:53:00,
2013-01-18 15:03:00,40.0,25.0,30.45,WSW,245,3.0,7.0,54,0.01,,,0.58,,2013-01-18 20:03:00,
2013-01-18 15:13:00,40.0,25.0,30.45,WSW,245,3.0,7.0,54,0.01,,,0.58,,2013-01-18 20:13:00,
2013-01-18 15:23:00,41.0,26.0,30.45,South,191,5.0,11.0,55,0.01,,,0.36,,2013-01-18 20:23:00,
2013-01-18 15:33:00,40.0,24.0,30.45,SW,217,6.0,11.0,53,0.00,,,0.36,,2013-01-18 20:33:00,
2013-01-18 15:43:00,40.0,24.0,30.45,SW,217,6.0,11.0,53,0.00,,,0.36,,2013-01-18 20:43:00,
2013-01-18 15:53:00,40.0,24.0,30.44,South,177,8.0,13.0,52,0.00,,,0.36,,2013-01-18 20:53:00,
2013-01-18 16:03:00,41.0,26.0,30.45,SSE,168,3.0,10.0,54,0.00,,,0.36,,2013-01-18 21:03:00,
2013-01-18 16:13:00,41.0,26.0,30.45,SSE,168,3.0,10.0,54,0.00,,,0.36,,2013-01-18 21:13:00,
2013-01-18 16:23:00,41.0,23.0,30.45,SW,236,9.0,12.0,49,0.00,,,0.21,,2013-01-18 21:23:00,
2013-01-18 16:33:00,40.0,24.0,30.45,WSW,255,6.0,13.0,52,0.00,,,0.21,,2013-01-18 21:33:00,
2013-01-18 16:43:00,40.0,24.0,30.45,WSW,255,6.0,13.0,52,0.00,,,0.21,,2013-01-18 21:43:00,
2013-01-18 16:53:00,40.0,22.0,30.45,WSW,246,10.0,14.0,49,0.00,,,0.21,,2013-01-18 21:53:00,
2013-01-18 17:03:00,40.0,23.0,30.46,SSW,211,8.0,12.0,51,0.00,,,0.21,,2013-01-18 22:03:00,
2013-01-18 17:12:00,40.0,23.0,30.46,SSW,211,8.0,12.0,51,0.00,,,0.21,,2013-01-18 22:12:00,
2013-01-18 17:23:00,40.0,23.0,30.46,SW,220,8.0,13.0,51,0.00,,,0.14,,2013-01-18 22:23:00,
2013-01-18 17:33:00,40.0,22.0,30.46,WSW,238,9.0,11.0,49,0.00,,,0.14,,2013-01-18 22:33:00,
2013-01-18 17:43:00,40.0,22.0,30.46,WSW,238,9.0,11.0,49,0.00,,,0.14,,2013-01-18 22:43:00,
2013-01-18 17:53:00,39.0,22.0,30.47,SSW,203,8.0,10.0,51,0.00,,,0.14,,2013-01-18 22:53:00,
2013-01-18 18:03:00,39.0,23.0,30.47,SSW,200,8.0,10.0,52,0.00,,,0.14,,2013-01-18 23:03:00,
2013-01-18 18:12:00,39.0,23.0,30.47,SSW,200,8.0,10.0,52,0.00,,,0.14,,2013-01-18 23:12:00,
2013-01-18 18:23:00,38.0,24.0,30.47,SSW,202,6.0,8.0,57,0.00,,,0.13,,2013-01-18 23:23:00,
2013-01-18 18:33:00,37.0,24.0,30.47,SW,223,8.0,8.0,58,0.00,,,0.13,,2013-01-18 23:33:00,
2013-01-18 18:43:00,37.0,24.0,30.47,SW,223,8.0,8.0,58,0.00,,,0.13,,2013-01-18 23:43:00,
2013-01-18 18:53:00,37.0,24.0,30.47,SSW,207,6.0,7.0,59,0.00,,,0.13,,2013-01-18 23:53:00,
2013-01-18 19:02:00,37.0,24.0,30.48,SSW,204,7.0,7.0,59,0.00,,,0.13,,2013-01-19 00:02:00,
2013-01-18 19:12:00,37.0,24.0,30.48,SSW,204,7.0,7.0,59,0.00,,,0.13,,2013-01-19 00:12:00,
2013-01-18 19:23:00,37.0,24.0,30.48,South,191,7.0,9.0,60,0.00,,,0.03,,2013-01-19 00:23:00,
2013-01-18 19:33:00,37.0,24.0,30.48,SSW,201,7.0,9.0,59,0.00,,,0.03,,2013-01-19 00:33:00,
2013-01-18 19:43:00,37.0,24.0,30.48,SSW,201,7.0,9.0,59,0.00,,,0.03,,2013-01-19 00:43:00,
2013-01-18 19:53:00,37.0,24.0,30.48,SSW,194,8.0,9.0,59,0.00,,,0.03,,2013-01-19 00:53:00,
2013-01-18 20:02:00,37.0,23.0,30.49,South,187,8.0,9.0,57,0.00,,,0.03,,2013-01-19 01:02:00,
2013-01-18 20:12:00,37.0,23.0,30.49,South,187,8.0,9.0,57,0.00,,,0.03,,2013-01-19 01:12:00,
2013-01-18 20:23:00,37.0,23.0,30.48,South,188,8.0,9.0,56,0.00,,,0.01,,2013-01-19 01:23:00,
2013-01-18 20:33:00,37.0,23.0,30.48,SSE,167,7.0,9.0,56,0.00,,,0.01,,2013-01-19 01:33:00,
2013-01-18 20:43:00,37.0,23.0,30.48,SSE,167,7.0,9.0,56,0.00,,,0.01,,2013-01-19 01:43:00,
2013-01-18 20:53:00,36.0,23.0,30.48,SSW,201,8.0,9.0,60,0.00,,,0.01,,2013-01-19 01:53:00,
2013-01-18 21:03:00,35.0,23.0,30.48,SSW,195,9.0,11.0,62,0.00,,,0.01,,2013-01-19 02:03:00,
2013-01-18 21:12:00,35.0,23.0,30.48,SSW,195,9.0,11.0,62,0.00,,,0.01,,2013-01-19 02:12:00,
2013-01-18 21:23:00,35.0,23.0,30.48,SSW,198,9.0,11.0,60,0.00,,,0.01,,2013-01-19 02:23:00,
2013-01-18 21:33:00,35.0,23.0,30.48,SSW,193,9.0,10.0,60,0.00,,,0.01,,2013-01-19 02:33:00,
2013-01-18 21:43:00,35.0,23.0,30.48,SSW,193,9.0,10.0,60,0.00,,,0.01,,2013-01-19 02:43:00,
2013-01-18 21:53:00,35.0,23.0,30.48,SSW,201,9.0,12.0,61,0.00,,,0.01,,2013-01-19 02:53:00,
2013-01-18 22:03:00,35.0,23.0,30.49,SSW,194,10.0,12.0,61,0.00,,,0.01,,2013-01-19 03:03:00,
2013-01-18 22:12:00,35.0,23.0,30.49,SSW,194,10.0,12.0,61,0.00,,,0.01,,2013-01-19 03:12:00,
2013-01-18 22:23:00,35.0,22.0,30.48,SSW,200,11.0,13.0,59,0.00,,,0.01,,2013-01-19 03:23:00,
2013-01-18 22:33:00,35.0,22.0,30.48,SSW,197,10.0,13.0,58,0.00,,,0.01,,2013-01-19 03:33:00,
2013-01-18 22:43:00,35.0,22.0,30.48,SSW,197,10.0,13.0,58,0.00,,,0.01,,2013-01-19 03:43:00,
2013-01-18 22:53:00,34.0,21.0,30.48,SSW,207,9.0,11.0,59,0.00,,,0.01,,2013-01-19 03:53:00,
2013-01-18 23:02:00,34.0,21.0,30.48,SSW,194,10.0,11.0,58,0.00,,,0.01,,2013-01-19 04:02:00,
2013-01-18 23:12:00,34.0,21.0,30.48,SSW,194,10.0,11.0,58,0.00,,,0.01,,2013-01-19 04:12:00,
2013-01-18 23:22:00,34.0,20.0,30.47,SSW,206,7.0,8.0,57,0.00,,,0.01,,2013-01-19 04:22:00,
2013-01-18 23:33:00,34.0,20.0,30.47,SSW,194,7.0,8.0,57,0.00,,,0.01,,2013-01-19 04:33:00,
2013-01-18 23:42:00,34.0,20.0,30.47,SSW,194,7.0,8.0,57,0.00,,,0.01,,2013-01-19 04:42:00,
2013-01-18 23:53:00,33.0,19.0,30.47,SSW,202,9.0,11.0,55,0.00,,,0.01,,2013-01-19 04:53:00,